createdAt,value
2019-03-16T00:00:11.613Z,96.60
2019-03-16T00:02:42.504Z,96.70
2019-03-16T00:05:11.848Z,96.70
2019-03-16T00:07:41.125Z,96.70
2019-03-16T00:10:10.466Z,96.80
2019-03-16T00:12:39.738Z,96.80
2019-03-16T00:15:09.282Z,97.00
2019-03-16T00:17:38.552Z,97.00
2019-03-16T00:20:09.961Z,97.20
2019-03-16T00:22:39.233Z,97.30
2019-03-16T00:25:09.441Z,97.30
2019-03-16T00:27:38.711Z,97.40
2019-03-16T00:30:13.224Z,97.40
2019-03-16T00:32:42.508Z,97.40
2019-03-16T00:35:11.857Z,97.30
2019-03-16T00:37:41.118Z,97.20
2019-03-16T00:40:12.706Z,97.20
2019-03-16T00:42:41.969Z,97.10
2019-03-16T00:45:12.298Z,97.10
2019-03-16T00:47:41.629Z,96.70
2019-03-16T00:50:12.148Z,96.60
2019-03-16T00:52:41.442Z,96.20
2019-03-16T00:55:11.410Z,96.20
2019-03-16T00:57:40.669Z,95.50
2019-03-16T01:00:14.987Z,95.10
2019-03-16T01:02:44.532Z,94.60
2019-03-16T01:05:14.570Z,94.40
2019-03-16T01:07:43.841Z,93.60
2019-03-16T01:10:13.106Z,93.30
2019-03-16T01:12:42.378Z,93.60
2019-03-16T01:15:12.976Z,93.60
2019-03-16T01:17:42.286Z,93.70
2019-03-16T01:20:12.548Z,93.90
2019-03-16T01:22:41.819Z,94.10
2019-03-16T01:25:12.704Z,94.00
2019-03-16T01:27:41.983Z,94.30
2019-03-16T01:30:14.407Z,94.30
2019-03-16T01:32:43.723Z,94.40
2019-03-16T01:35:13.114Z,94.30
2019-03-16T01:37:42.757Z,94.50
2019-03-16T01:40:12.088Z,94.40
2019-03-16T01:42:41.447Z,94.50
2019-03-16T01:45:11.659Z,94.60
2019-03-16T01:47:40.935Z,94.40
2019-03-16T01:50:11.448Z,94.40
2019-03-16T01:52:40.736Z,94.30
2019-03-16T01:55:10.271Z,94.10
2019-03-16T01:57:40.619Z,93.80
2019-03-16T02:00:12.429Z,93.60
2019-03-16T02:02:54.450Z,93.70
2019-03-16T02:05:12.677Z,93.80
2019-03-16T02:07:41.951Z,93.70
2019-03-16T02:10:11.281Z,93.80
2019-03-16T02:12:40.547Z,94.00
2019-03-16T02:15:09.824Z,94.00
2019-03-16T02:17:39.109Z,94.10
2019-03-16T02:20:09.517Z,94.10
2019-03-16T02:22:38.788Z,94.20
2019-03-16T02:25:08.892Z,94.30
2019-03-16T02:27:38.172Z,94.40
2019-03-16T02:30:10.242Z,94.50
2019-03-16T02:32:39.525Z,94.50
2019-03-16T02:35:08.801Z,94.70
2019-03-16T02:37:38.157Z,94.80
2019-03-16T02:40:09.463Z,94.90
2019-03-16T02:42:38.742Z,95.00
2019-03-16T02:45:10.047Z,95.10
2019-03-16T02:47:39.325Z,95.20
2019-03-16T02:50:10.426Z,95.30
2019-03-16T02:52:39.702Z,95.30
2019-03-16T02:55:09.632Z,95.40
2019-03-16T02:57:39.856Z,95.50
2019-03-16T03:00:13.015Z,95.50
2019-03-16T03:02:43.263Z,95.60
2019-03-16T03:05:12.791Z,95.60
2019-03-16T03:07:42.116Z,95.70
2019-03-16T03:10:15.397Z,95.70
2019-03-16T03:12:44.966Z,95.80
2019-03-16T03:15:14.288Z,95.80
2019-03-16T03:17:43.559Z,95.90
2019-03-16T03:20:12.909Z,95.90
2019-03-16T03:22:42.168Z,96.00
2019-03-16T03:25:11.449Z,96.00
2019-03-16T03:27:40.721Z,96.10
2019-03-16T03:30:12.326Z,95.90
2019-03-16T03:32:41.604Z,96.20
2019-03-16T03:35:11.049Z,96.20
2019-03-16T03:37:41.282Z,96.30
2019-03-16T03:40:11.490Z,96.30
2019-03-16T03:42:40.817Z,96.40
2019-03-16T03:45:11.523Z,96.50
2019-03-16T03:47:40.794Z,96.50
2019-03-16T03:50:12.783Z,96.60
2019-03-16T03:52:42.112Z,96.70
2019-03-16T03:55:12.805Z,96.70
2019-03-16T03:57:42.512Z,96.80
2019-03-16T04:00:14.188Z,96.80
2019-03-16T04:02:43.466Z,96.80
2019-03-16T04:05:13.075Z,96.80
2019-03-16T04:07:42.341Z,96.90
2019-03-16T04:10:12.052Z,96.90
2019-03-16T04:12:41.323Z,96.90
2019-03-16T04:15:12.020Z,97.30
2019-03-16T04:17:41.297Z,97.00
2019-03-16T04:20:14.410Z,97.00
2019-03-16T04:22:43.679Z,97.00
2019-03-16T04:25:12.952Z,97.00
2019-03-16T04:27:42.224Z,97.00
2019-03-16T04:30:12.535Z,97.00
2019-03-16T04:32:41.809Z,97.10
2019-03-16T04:35:11.093Z,97.10
2019-03-16T04:37:40.374Z,97.10
2019-03-16T04:40:11.098Z,97.10
2019-03-16T04:42:40.367Z,97.20
2019-03-16T04:45:11.190Z,97.50
2019-03-16T04:47:40.461Z,97.20
2019-03-16T04:50:11.272Z,97.20
2019-03-16T04:52:40.551Z,97.20
2019-03-16T04:55:09.883Z,97.20
2019-03-16T04:57:39.157Z,97.30
2019-03-16T05:00:10.483Z,97.30
2019-03-16T05:02:39.739Z,97.30
2019-03-16T05:05:09.025Z,97.30
2019-03-16T05:07:38.294Z,97.60
2019-03-16T05:10:10.121Z,97.30
2019-03-16T05:12:39.379Z,97.40
2019-03-16T05:15:09.704Z,97.40
2019-03-16T05:17:38.957Z,97.40
2019-03-16T05:20:11.518Z,97.80
2019-03-16T05:22:41.858Z,97.50
2019-03-16T05:25:11.979Z,97.50
2019-03-16T05:27:41.259Z,97.50
2019-03-16T05:30:14.239Z,97.60
2019-03-16T05:32:43.523Z,97.60
2019-03-16T05:35:12.846Z,97.60
2019-03-16T05:37:42.125Z,97.60
2019-03-16T05:40:11.827Z,97.60
2019-03-16T05:42:41.167Z,97.60
2019-03-16T05:45:10.784Z,97.70
2019-03-16T05:47:40.058Z,97.80
2019-03-16T05:50:11.471Z,97.80
2019-03-16T05:52:40.740Z,97.70
2019-03-16T05:55:10.345Z,97.80
2019-03-16T05:57:40.596Z,97.80
2019-03-16T06:00:15.544Z,97.80
2019-03-16T06:02:44.810Z,97.80
2019-03-16T06:05:14.086Z,97.80
2019-03-16T06:07:43.356Z,97.80
2019-03-16T06:10:12.905Z,97.80
2019-03-16T06:12:46.322Z,97.80
2019-03-16T06:15:14.048Z,97.90
2019-03-16T06:17:43.310Z,98.00
2019-03-16T06:20:15.558Z,97.90
2019-03-16T06:22:44.833Z,98.10
2019-03-16T06:25:14.109Z,97.90
2019-03-16T06:27:43.374Z,98.00
2019-03-16T06:30:14.945Z,98.00
2019-03-16T06:32:44.225Z,98.00
2019-03-16T06:35:23.887Z,98.00
2019-03-16T06:37:44.465Z,98.00
2019-03-16T06:40:13.732Z,98.00
2019-03-16T06:42:43.081Z,98.00
2019-03-16T06:45:13.481Z,98.00
2019-03-16T06:47:42.772Z,98.00
2019-03-16T06:50:14.420Z,98.00
2019-03-16T06:52:43.698Z,98.00
2019-03-16T06:55:13.208Z,98.00
2019-03-16T06:57:42.487Z,98.10
2019-03-16T07:00:16.783Z,98.10
2019-03-16T07:02:46.050Z,98.10
2019-03-16T07:05:15.312Z,98.10
2019-03-16T07:07:44.593Z,98.10
2019-03-16T07:10:14.231Z,98.10
2019-03-16T07:12:44.497Z,98.30
2019-03-16T07:15:14.819Z,98.20
2019-03-16T07:17:44.100Z,98.20
2019-03-16T07:20:15.560Z,98.20
2019-03-16T07:22:44.831Z,98.30
2019-03-16T07:25:14.091Z,98.40
2019-03-16T07:27:43.366Z,98.70
2019-03-16T07:30:13.669Z,98.80
2019-03-16T07:32:44.007Z,99.10
2019-03-16T07:35:13.277Z,99.10
2019-03-16T07:37:42.546Z,99.10
2019-03-16T07:40:13.057Z,99.00
2019-03-16T07:42:42.341Z,98.90
2019-03-16T07:45:12.664Z,98.80
2019-03-16T07:47:41.951Z,98.70
2019-03-16T07:50:12.961Z,98.30
2019-03-16T07:52:42.475Z,97.90
2019-03-16T07:55:11.817Z,97.80
2019-03-16T07:57:41.202Z,97.70
2019-03-16T08:00:12.653Z,97.60
2019-03-16T08:02:41.989Z,97.50
2019-03-16T08:05:18.259Z,97.20
2019-03-16T08:07:42.242Z,97.10
2019-03-16T08:10:12.015Z,96.80
2019-03-16T08:12:41.287Z,96.90
2019-03-16T08:15:11.301Z,96.80
2019-03-16T08:17:40.568Z,96.70
2019-03-16T08:20:11.268Z,96.30
2019-03-16T08:22:40.533Z,96.30
2019-03-16T08:25:09.877Z,96.00
2019-03-16T08:27:39.145Z,96.00
2019-03-16T08:30:10.466Z,95.90
2019-03-16T08:32:39.737Z,96.00
2019-03-16T08:35:10.247Z,96.10
2019-03-16T08:37:39.494Z,96.10
2019-03-16T08:40:10.507Z,96.10
2019-03-16T08:42:39.778Z,96.00
2019-03-16T08:45:12.192Z,96.00
2019-03-16T08:47:41.453Z,95.80
2019-03-16T08:50:11.874Z,95.70
2019-03-16T08:52:41.128Z,95.70
2019-03-16T08:55:11.486Z,95.70
2019-03-16T08:57:40.749Z,95.60
2019-03-16T09:00:12.087Z,95.80
2019-03-16T09:02:41.338Z,95.80
2019-03-16T09:05:10.996Z,95.70
2019-03-16T09:07:40.260Z,95.80
2019-03-16T09:10:10.179Z,95.60
2019-03-16T09:12:40.418Z,95.60
2019-03-16T09:15:17.180Z,95.40
2019-03-16T09:17:46.453Z,95.30
2019-03-16T09:20:15.732Z,95.20
2019-03-16T09:22:45.000Z,95.00
2019-03-16T09:25:14.270Z,95.10
2019-03-16T09:27:43.545Z,95.10
2019-03-16T09:30:14.469Z,94.90
2019-03-16T09:32:43.807Z,94.80
2019-03-16T09:35:13.150Z,94.50
2019-03-16T09:37:42.417Z,94.40
2019-03-16T09:40:11.758Z,94.30
2019-03-16T09:42:41.031Z,94.20
2019-03-16T09:45:11.855Z,93.90
2019-03-16T09:47:41.120Z,93.70
2019-03-16T09:50:11.246Z,93.60
2019-03-16T09:52:40.527Z,93.60
2019-03-16T09:55:11.702Z,93.50
2019-03-16T09:57:41.043Z,93.10
2019-03-16T10:00:16.887Z,93.50
2019-03-16T10:02:47.115Z,92.60
2019-03-16T10:05:16.400Z,92.30
2019-03-16T10:07:45.661Z,92.20
2019-03-16T10:10:15.576Z,92.30
2019-03-16T10:12:44.877Z,92.00
2019-03-16T10:15:14.704Z,92.00
2019-03-16T10:17:43.983Z,91.80
2019-03-16T10:20:14.401Z,91.70
2019-03-16T10:22:43.682Z,91.40
2019-03-16T10:25:12.955Z,91.60
2019-03-16T10:27:42.224Z,91.60
2019-03-16T10:30:14.827Z,91.80
2019-03-16T10:32:44.108Z,91.90
2019-03-16T10:35:13.373Z,91.80
2019-03-16T10:37:42.656Z,91.90
2019-03-16T10:40:13.262Z,92.00
2019-03-16T10:42:42.546Z,91.80
2019-03-16T10:45:12.276Z,92.00
2019-03-16T10:47:41.579Z,91.60
2019-03-16T10:50:12.161Z,91.30
2019-03-16T10:52:41.475Z,91.10
2019-03-16T10:55:10.818Z,90.80
2019-03-16T10:57:40.098Z,90.10
2019-03-16T11:00:13.958Z,90.20
2019-03-16T11:02:43.223Z,90.30
2019-03-16T11:05:12.568Z,89.80
2019-03-16T11:07:41.855Z,87.20
2019-03-16T11:10:12.365Z,86.30
2019-03-16T11:12:43.275Z,85.00
2019-03-16T11:15:13.669Z,83.50
2019-03-16T11:17:43.982Z,84.10
2019-03-16T11:20:17.426Z,84.80
2019-03-16T11:22:47.688Z,85.20
2019-03-16T11:25:16.943Z,82.00
2019-03-16T11:27:46.225Z,81.20
2019-03-16T11:30:17.612Z,80.00
2019-03-16T11:32:46.888Z,78.70
2019-03-16T11:35:17.337Z,78.80
2019-03-16T11:37:46.617Z,79.50
2019-03-16T11:40:18.083Z,78.80
2019-03-16T11:42:47.365Z,78.80
2019-03-16T11:45:17.367Z,78.40
2019-03-16T11:47:46.984Z,78.30
2019-03-16T11:50:16.257Z,78.80
2019-03-16T11:52:45.536Z,79.50
2019-03-16T11:55:14.809Z,79.80
2019-03-16T11:57:44.082Z,80.20
2019-03-16T12:00:14.295Z,80.70
2019-03-16T12:02:43.564Z,80.30
2019-03-16T12:05:12.897Z,81.20
2019-03-16T12:07:42.181Z,81.50
2019-03-16T12:10:12.685Z,81.30
2019-03-16T12:12:41.965Z,80.60
2019-03-16T12:15:12.555Z,80.70
2019-03-16T12:17:41.883Z,81.10
2019-03-16T12:20:12.410Z,81.20
2019-03-16T12:22:41.685Z,81.40
2019-03-16T12:25:11.288Z,81.30
2019-03-16T12:27:40.571Z,82.30
2019-03-16T12:30:11.877Z,82.00
2019-03-16T12:32:42.138Z,80.80
2019-03-16T12:35:11.465Z,80.30
2019-03-16T12:37:40.729Z,80.70
2019-03-16T12:40:14.641Z,79.90
2019-03-16T12:42:43.903Z,79.10
2019-03-16T12:45:20.899Z,79.10
2019-03-16T12:47:50.484Z,79.80
2019-03-16T12:50:19.761Z,78.80
2019-03-16T12:52:49.161Z,79.40
2019-03-16T12:55:18.467Z,79.40
2019-03-16T12:57:48.186Z,78.80
2019-03-16T13:00:18.793Z,78.80
2019-03-16T13:02:48.127Z,78.80
2019-03-16T13:05:17.408Z,79.10
2019-03-16T13:07:47.668Z,79.10
2019-03-16T13:10:18.042Z,79.20
2019-03-16T13:12:47.401Z,79.80
2019-03-16T13:15:16.691Z,80.00
2019-03-16T13:17:45.972Z,80.60
2019-03-16T13:20:16.486Z,80.60
2019-03-16T13:22:45.786Z,79.50
2019-03-16T13:25:15.205Z,80.00
2019-03-16T13:27:44.480Z,79.20
2019-03-16T13:30:17.593Z,79.30
2019-03-16T13:32:46.890Z,79.40
2019-03-16T13:35:16.252Z,80.10
2019-03-16T13:37:45.595Z,80.30
2019-03-16T13:40:17.186Z,80.00
2019-03-16T13:42:46.581Z,79.60
2019-03-16T13:45:15.995Z,79.90
2019-03-16T13:47:45.259Z,79.70
2019-03-16T13:50:19.468Z,80.20
2019-03-16T13:52:49.096Z,80.30
2019-03-16T13:55:18.377Z,80.20
2019-03-16T13:57:47.644Z,80.70
2019-03-16T14:00:18.347Z,80.70
2019-03-16T14:02:47.613Z,80.60
2019-03-16T14:05:16.897Z,79.50
2019-03-16T14:07:46.429Z,78.90
2019-03-16T14:10:29.556Z,78.70
2019-03-16T14:12:58.827Z,78.00
2019-03-16T14:15:28.109Z,78.00
2019-03-16T14:17:58.274Z,78.20
2019-03-16T14:20:27.838Z,79.00
2019-03-16T14:22:57.383Z,79.30
2019-03-16T14:25:26.674Z,78.80
2019-03-16T14:27:55.953Z,78.90
2019-03-16T14:30:39.821Z,79.00
2019-03-16T14:32:56.223Z,79.20
2019-03-16T14:35:26.458Z,79.50
2019-03-16T14:37:55.717Z,78.90
2019-03-16T14:40:25.315Z,78.00
2019-03-16T14:42:54.633Z,78.40
2019-03-16T14:45:24.246Z,78.10
2019-03-16T14:47:53.529Z,78.30
2019-03-16T14:50:24.065Z,78.50
2019-03-16T14:52:53.353Z,77.20
2019-03-16T14:55:22.698Z,76.80
2019-03-16T14:57:51.961Z,77.40
2019-03-16T15:00:21.240Z,77.60
2019-03-16T15:02:50.530Z,77.10
2019-03-16T15:05:19.835Z,76.90
2019-03-16T15:07:50.139Z,77.40
2019-03-16T15:10:19.928Z,78.00
2019-03-16T15:12:49.214Z,77.60
2019-03-16T15:15:21.635Z,77.10
2019-03-16T15:17:50.926Z,76.00
2019-03-16T15:20:20.216Z,75.80
2019-03-16T15:22:49.482Z,76.20
2019-03-16T15:25:18.755Z,76.50
2019-03-16T15:27:48.033Z,76.10
2019-03-16T15:30:21.339Z,75.90
2019-03-16T15:32:50.614Z,76.30
2019-03-16T15:35:19.876Z,75.70
2019-03-16T15:37:49.170Z,75.60
2019-03-16T15:40:18.416Z,75.60
2019-03-16T15:42:47.693Z,75.70
2019-03-16T15:45:21.351Z,74.90
2019-03-16T15:47:50.636Z,75.00
2019-03-16T15:50:20.025Z,74.90
2019-03-16T15:52:49.304Z,75.10
2019-03-16T15:55:18.575Z,74.50
2019-03-16T15:57:47.865Z,74.80
2019-03-16T16:00:18.157Z,75.40
2019-03-16T16:02:47.431Z,75.50
2019-03-16T16:05:16.720Z,75.40
2019-03-16T16:07:46.167Z,75.00
2019-03-16T16:10:16.482Z,75.20
2019-03-16T16:12:45.840Z,75.00
2019-03-16T16:15:15.563Z,74.80
2019-03-16T16:17:44.867Z,74.10
2019-03-16T16:20:18.313Z,74.00
2019-03-16T16:22:47.654Z,74.10
2019-03-16T16:25:16.984Z,74.10
2019-03-16T16:27:46.260Z,74.00
2019-03-16T16:30:19.324Z,74.10
2019-03-16T16:32:48.623Z,74.40
2019-03-16T16:35:17.877Z,74.80
2019-03-16T16:37:47.153Z,74.90
2019-03-16T16:40:17.553Z,74.50
2019-03-16T16:42:46.912Z,74.80
2019-03-16T16:45:19.378Z,75.00
2019-03-16T16:47:48.645Z,74.80
2019-03-16T16:50:25.381Z,74.50
2019-03-16T16:52:54.665Z,74.00
2019-03-16T16:55:23.931Z,74.30
2019-03-16T16:57:53.225Z,73.30
2019-03-16T17:00:26.590Z,73.70
2019-03-16T17:02:55.893Z,73.60
2019-03-16T17:05:25.242Z,73.20
2019-03-16T17:07:54.538Z,72.40
2019-03-16T17:10:23.810Z,72.70
2019-03-16T17:12:53.199Z,71.90
2019-03-16T17:15:24.280Z,72.30
2019-03-16T17:17:53.635Z,72.50
2019-03-16T17:20:22.908Z,73.00
2019-03-16T17:22:52.195Z,72.70
2019-03-16T17:25:21.497Z,72.90
2019-03-16T17:27:50.744Z,73.20
2019-03-16T17:30:25.360Z,73.30
2019-03-16T17:32:54.640Z,73.50
2019-03-16T17:35:23.921Z,73.70
2019-03-16T17:37:53.184Z,73.60
2019-03-16T17:40:22.472Z,73.70
2019-03-16T17:42:51.773Z,73.20
2019-03-16T17:45:21.063Z,73.50
2019-03-16T17:47:50.443Z,73.70
2019-03-16T17:50:20.676Z,74.00
2019-03-16T17:52:49.976Z,73.80
2019-03-16T17:55:19.771Z,74.00
2019-03-16T17:57:49.049Z,74.00
2019-03-16T18:00:18.792Z,73.60
2019-03-16T18:02:52.305Z,73.70
2019-03-16T18:05:19.348Z,73.90
2019-03-16T18:07:48.608Z,73.90
2019-03-16T18:10:17.902Z,73.90
2019-03-16T18:12:47.191Z,74.00
2019-03-16T18:15:17.393Z,74.10
2019-03-16T18:17:46.666Z,74.10
2019-03-16T18:20:19.039Z,74.10
2019-03-16T18:22:48.365Z,74.30
2019-03-16T18:25:17.714Z,74.40
2019-03-16T18:27:47.182Z,75.30
2019-03-16T18:30:21.666Z,74.70
2019-03-16T18:32:50.945Z,74.80
2019-03-16T18:35:20.240Z,74.70
2019-03-16T18:37:49.536Z,74.70
2019-03-16T18:40:18.825Z,74.50
2019-03-16T18:42:48.096Z,74.80
2019-03-16T18:45:19.667Z,74.90
2019-03-16T18:47:48.981Z,74.90
2019-03-16T18:50:18.344Z,74.90
2019-03-16T18:52:47.622Z,74.90
2019-03-16T18:55:16.897Z,75.00
2019-03-16T18:57:46.178Z,75.30
2019-03-16T19:00:17.481Z,75.40
2019-03-16T19:02:46.823Z,75.30
2019-03-16T19:05:16.116Z,75.30
2019-03-16T19:07:45.504Z,75.50
2019-03-16T19:10:15.712Z,75.60
2019-03-16T19:12:45.233Z,75.60
2019-03-16T19:15:15.903Z,75.60
2019-03-16T19:17:57.602Z,75.70
2019-03-16T19:20:17.598Z,75.90
2019-03-16T19:22:46.924Z,75.90
2019-03-16T19:25:20.064Z,76.00
2019-03-16T19:27:49.410Z,75.90
2019-03-16T19:30:18.941Z,75.80
2019-03-16T19:32:48.242Z,76.00
2019-03-16T19:35:17.792Z,76.00
2019-03-16T19:37:47.068Z,75.90
2019-03-16T19:40:17.777Z,76.00
2019-03-16T19:42:47.412Z,76.10
2019-03-16T19:45:16.875Z,76.10
2019-03-16T19:47:46.223Z,76.20
2019-03-16T19:50:18.319Z,76.30
2019-03-16T19:52:47.609Z,76.20
2019-03-16T19:55:16.879Z,76.30
2019-03-16T19:57:46.173Z,76.60
2019-03-16T20:00:16.697Z,76.60
2019-03-16T20:02:50.603Z,76.80
2019-03-16T20:05:17.080Z,77.20
2019-03-16T20:07:46.371Z,77.30
2019-03-16T20:10:17.079Z,77.40
2019-03-16T20:12:46.712Z,77.60
2019-03-16T20:15:16.482Z,77.80
2019-03-16T20:17:45.779Z,77.90
2019-03-16T20:20:16.361Z,78.10
2019-03-16T20:22:45.728Z,78.30
2019-03-16T20:25:15.536Z,78.40
2019-03-16T20:27:44.831Z,78.50
2019-03-16T20:30:15.340Z,78.60
2019-03-16T20:32:48.418Z,78.80
2019-03-16T20:35:15.678Z,78.80
2019-03-16T20:37:44.951Z,78.80
2019-03-16T20:40:15.266Z,78.90
2019-03-16T20:42:44.540Z,79.10
2019-03-16T20:45:14.448Z,79.10
2019-03-16T20:47:43.867Z,79.30
2019-03-16T20:50:18.395Z,79.40
2019-03-16T20:52:47.651Z,79.40
2019-03-16T20:55:18.076Z,79.60
2019-03-16T20:57:47.342Z,79.40
2019-03-16T21:00:17.806Z,79.60
2019-03-16T21:02:47.196Z,79.40
2019-03-16T21:05:16.613Z,79.40
2019-03-16T21:07:45.955Z,79.40
2019-03-16T21:10:15.243Z,79.50
2019-03-16T21:12:44.524Z,79.50
2019-03-16T21:15:15.238Z,79.60
2019-03-16T21:17:44.533Z,79.60
2019-03-16T21:20:15.253Z,79.60
2019-03-16T21:22:44.698Z,79.70
2019-03-16T21:25:14.918Z,79.80
2019-03-16T21:27:44.341Z,79.80
2019-03-16T21:30:17.692Z,79.90
2019-03-16T21:32:46.985Z,80.00
2019-03-16T21:35:16.274Z,80.00
2019-03-16T21:37:45.639Z,80.10
2019-03-16T21:40:15.452Z,80.10
2019-03-16T21:42:44.722Z,80.20
2019-03-16T21:45:14.371Z,80.20
2019-03-16T21:47:43.645Z,80.30
2019-03-16T21:50:14.385Z,80.50
2019-03-16T21:52:44.890Z,80.60
2019-03-16T21:55:14.957Z,80.60
2019-03-16T21:57:45.184Z,80.60
2019-03-16T22:00:18.797Z,80.60
2019-03-16T22:02:48.073Z,80.60
2019-03-16T22:05:17.450Z,80.80
2019-03-16T22:07:46.715Z,80.90
2019-03-16T22:10:17.145Z,80.70
2019-03-16T22:12:46.430Z,80.60
2019-03-16T22:15:16.778Z,80.60
2019-03-16T22:17:47.111Z,80.60
2019-03-16T22:20:20.570Z,80.50
2019-03-16T22:22:49.846Z,80.20
2019-03-16T22:25:19.117Z,80.20
2019-03-16T22:27:51.411Z,80.10
2019-03-16T22:30:19.383Z,80.00
2019-03-16T22:32:48.649Z,80.00
2019-03-16T22:35:17.951Z,79.80
2019-03-16T22:37:47.226Z,79.70
2019-03-16T22:40:17.463Z,79.60
2019-03-16T22:42:46.731Z,79.60
2019-03-16T22:45:16.073Z,79.40
2019-03-16T22:47:45.359Z,79.40
2019-03-16T22:50:16.158Z,79.20
2019-03-16T22:52:45.490Z,78.90
2019-03-16T22:55:16.169Z,78.90
2019-03-16T22:57:45.789Z,78.80
2019-03-16T23:00:21.321Z,78.80
2019-03-16T23:02:52.210Z,78.60
2019-03-16T23:05:21.495Z,78.60
2019-03-16T23:07:50.751Z,78.20
2019-03-16T23:10:20.033Z,78.30
2019-03-16T23:12:49.304Z,78.10
2019-03-16T23:15:18.581Z,78.00
2019-03-16T23:17:47.853Z,78.20
2019-03-16T23:20:17.125Z,78.20
2019-03-16T23:22:46.392Z,78.20
2019-03-16T23:25:15.672Z,78.20
2019-03-16T23:27:44.973Z,78.20
2019-03-16T23:30:14.311Z,78.00
2019-03-16T23:32:43.586Z,78.00
2019-03-16T23:35:12.861Z,78.00
2019-03-16T23:37:42.122Z,78.00
2019-03-16T23:40:12.436Z,78.00
2019-03-16T23:42:41.712Z,78.00
2019-03-16T23:45:14.091Z,78.00
2019-03-16T23:47:43.604Z,78.00
2019-03-16T23:50:13.946Z,78.00
2019-03-16T23:52:43.217Z,77.90
2019-03-16T23:55:12.563Z,78.00
2019-03-16T23:57:41.837Z,77.90
